Terminal Aerodrome Forecast
Issued by NWS

Home | Current Version | Previous Version | Text Only | Print | Product List | Glossary On
Versions: 1 2 3 4 5 6 7 8 9 10 11 12 13 14 15 16
000
FTUS42 KTBW 251700 RRA
TAFRSW
TAF
KRSW 251744Z 2518/2618 VRB05KT P6SM FEW250
     FM260500 24007KT P6SM SCT025 BKN050
     FM261200 26011G18KT P6SM VCSH BKN020 OVC050
     FM261500 29018G26KT P6SM VCSH FEW020 BKN050=

USA.gov is the U.S. government's official web portal to all federal, state and local government web resources and services.